Time;durP1;ratioP1;P1;durP2;ratioP2;P2;SDS_P1;SDS_P2;PMS_P1;PMS_P2;Temp;Humidity;BMP_temperature;BMP_pressure;BME280_temperature;BME280_humidity;BME280_pressure;Samples;Min_cycle;Max_cycle;Signal;HPM_P1;HPM_P2
2022/05/26 00:01:06;;;;;;;4.80;1.10;;;;;;;17.69;43.53;98253.69;8389692;28;20230;-89
2022/05/26 00:05:09;;;;;;;5.20;1.23;;;;;;;17.65;45.22;98263.53;8417926;28;20234;-91
2022/05/26 00:09:12;;;;;;;1.47;0.97;;;;;;;17.61;44.53;98264.69;8417571;28;20537;-85
2022/05/26 00:13:15;;;;;;;1.10;0.93;;;;;;;17.67;43.79;98263.41;8415777;28;20260;-87
2022/05/26 00:17:20;;;;;;;4.27;1.00;;;;;;;17.63;44.12;98264.56;8416439;28;20239;-86
2022/05/26 00:21:23;;;;;;;1.30;0.80;;;;;;;17.62;44.58;98270.75;8383266;28;20290;-86
2022/05/26 00:25:26;;;;;;;3.57;1.10;;;;;;;17.68;44.29;98262.47;8383108;28;20231;-88
2022/05/26 00:29:29;;;;;;;2.00;0.90;;;;;;;17.52;44.24;98273.19;8383268;28;20228;-86
2022/05/26 00:33:33;;;;;;;2.80;1.00;;;;;;;17.50;44.38;98275.88;8383248;28;20236;-88
2022/05/26 00:37:36;;;;;;;4.00;1.20;;;;;;;17.65;43.62;98268.78;8382867;28;20246;-86
2022/05/26 00:41:41;;;;;;;1.83;1.00;;;;;;;17.63;42.99;98265.44;8382815;28;20238;-87
2022/05/26 00:45:48;;;;;;;2.30;0.90;;;;;;;17.58;42.90;98270.13;8382807;28;20223;-87
2022/05/26 00:49:55;;;;;;;2.30;0.90;;;;;;;17.63;43.10;98272.41;8382585;28;20227;-85
2022/05/26 00:54:02;;;;;;;2.47;0.80;;;;;;;17.73;42.94;98265.63;8382489;28;20238;-88
2022/05/26 00:58:08;;;;;;;2.37;0.90;;;;;;;17.64;42.99;98272.31;8382324;28;20239;-87
2022/05/26 01:02:13;;;;;;;3.40;1.10;;;;;;;17.66;43.06;98272.22;8382062;28;20227;-88
2022/05/26 01:06:21;;;;;;;3.03;0.93;;;;;;;17.76;42.84;98273.25;8382304;28;20243;-86
2022/05/26 01:10:24;;;;;;;6.97;1.10;;;;;;;17.78;43.09;98280.09;8381921;28;20548;-85
2022/05/26 01:14:30;;;;;;;2.20;1.10;;;;;;;17.65;43.73;98275.78;8381622;28;20228;-85
2022/05/26 01:18:39;;;;;;;2.87;1.00;;;;;;;17.74;43.27;98275.16;8381770;28;20231;-87
2022/05/26 01:23:19;;;;;;;2.57;1.00;;;;;;;17.69;43.48;98270.25;8381836;28;20246;-87
2022/05/26 01:27:27;;;;;;;4.77;0.80;;;;;;;17.72;43.73;98263.94;8339921;28;20238;-84
2022/05/26 01:31:39;;;;;;;2.40;0.90;;;;;;;17.66;44.04;98261.75;8381440;28;20426;-84
2022/05/26 01:35:50;;;;;;;4.87;1.20;;;;;;;17.61;44.13;98259.47;8381046;28;20239;-84
2022/05/26 01:39:59;;;;;;;4.03;0.93;;;;;;;17.63;44.63;98262.81;8381111;28;20227;-85
2022/05/26 01:44:07;;;;;;;2.93;1.00;;;;;;;17.63;44.52;98261.94;8380907;28;20231;-84
2022/05/26 01:48:16;;;;;;;2.67;1.20;;;;;;;17.69;44.51;98266.78;8381034;28;20235;-85
2022/05/26 01:52:27;;;;;;;5.33;1.13;;;;;;;17.74;44.13;98262.06;8380680;28;20236;-86
2022/05/26 01:56:34;;;;;;;2.47;1.20;;;;;;;18.17;43.00;98261.72;8379345;28;20417;-85
2022/05/26 02:00:37;;;;;;;3.63;0.90;;;;;;;17.79;44.12;98258.16;8380646;28;20231;-84
2022/05/26 02:04:45;;;;;;;1.80;0.90;;;;;;;17.79;44.35;98260.78;8380627;28;20227;-83
2022/05/26 02:08:52;;;;;;;2.30;1.00;;;;;;;17.76;44.69;98260.16;8380742;28;20231;-83
2022/05/26 02:12:59;;;;;;;1.63;0.90;;;;;;;17.76;44.96;98268.03;8380567;28;20231;-83
2022/05/26 02:17:06;;;;;;;2.30;1.00;;;;;;;17.67;45.16;98266.88;8380350;28;20231;-83
2022/05/26 02:21:14;;;;;;;3.83;1.20;;;;;;;17.80;44.55;98264.28;8380408;28;20227;-83
2022/05/26 02:25:19;;;;;;;1.73;1.00;;;;;;;17.83;43.98;98260.59;8380401;28;20238;-83
2022/05/26 02:33:43;;;;;;;3.63;1.17;;;;;;;17.77;45.20;98262.69;8380113;28;20243;-83
2022/05/26 02:37:52;;;;;;;1.60;0.80;;;;;;;17.72;45.60;98263.94;8384844;28;20402;-84
2022/05/26 02:41:56;;;;;;;2.67;0.90;;;;;;;17.73;45.46;98265.63;8386721;28;20231;-83
2022/05/26 02:46:04;;;;;;;2.67;0.90;;;;;;;17.74;45.16;98257.66;8386420;28;20273;-84
2022/05/26 02:50:33;;;;;;;2.10;1.00;;;;;;;17.76;44.98;98261.03;8386376;28;20234;-83
2022/05/26 02:54:47;;;;;;;1.93;0.90;;;;;;;17.83;44.83;98260.59;8418900;28;20237;-83
2022/05/26 02:58:57;;;;;;;2.50;0.90;;;;;;;17.83;44.80;98264.03;8419124;28;20241;-83
2022/05/26 03:03:04;;;;;;;1.93;0.73;;;;;;;17.79;45.02;98266.03;8419102;28;20222;-83
2022/05/26 03:07:10;;;;;;;1.43;0.80;;;;;;;17.82;45.23;98267.63;8418862;28;20230;-83
2022/05/26 03:11:18;;;;;;;3.73;1.00;;;;;;;17.82;45.24;98269.38;8418740;28;20397;-83
2022/05/26 03:15:21;;;;;;;3.37;0.90;;;;;;;17.85;45.39;98266.59;8418806;28;20235;-83
2022/05/26 03:19:24;;;;;;;2.10;1.07;;;;;;;17.79;45.85;98271.28;8410339;28;20227;-83
2022/05/26 03:23:28;;;;;;;1.40;0.70;;;;;;;17.86;45.57;98274.34;8418203;28;20230;-84
2022/05/26 03:27:32;;;;;;;2.43;1.07;;;;;;;17.85;45.22;98275.28;8418154;28;20242;-84
2022/05/26 03:31:35;;;;;;;2.53;0.90;;;;;;;17.84;45.25;98280.59;8418243;28;20435;-84
2022/05/26 03:44:21;;;;;;;5.13;1.10;;;;;;;17.74;46.27;98283.00;8417729;28;20571;-83
2022/05/26 03:48:24;;;;;;;3.70;1.00;;;;;;;17.83;46.21;98292.03;8408758;28;20540;-83
2022/05/26 03:52:27;;;;;;;1.70;0.80;;;;;;;17.79;47.07;98297.47;8417848;28;20313;-83
2022/05/26 03:56:30;;;;;;;3.57;0.80;;;;;;;17.82;46.68;98287.72;8417233;28;20235;-85
2022/05/26 04:00:35;;;;;;;2.33;0.90;;;;;;;17.82;46.13;98296.44;8417355;28;20422;-84
2022/05/26 04:04:38;;;;;;;4.00;0.90;;;;;;;17.90;46.39;98296.75;8417028;28;20427;-84
2022/05/26 04:08:41;;;;;;;2.17;0.90;;;;;;;17.90;45.70;98298.56;8417097;28;20345;-84
2022/05/26 04:12:44;;;;;;;2.33;0.70;;;;;;;17.83;45.09;98299.88;8416985;28;20226;-83
2022/05/26 04:16:48;;;;;;;4.30;0.90;;;;;;;18.00;45.07;98304.00;8416729;28;20237;-83
2022/05/26 04:20:51;;;;;;;2.53;0.80;;;;;;;18.03;44.81;98295.91;8416694;28;20227;-84
2022/05/26 04:24:57;;;;;;;2.00;0.50;;;;;;;17.98;44.87;98298.84;8416675;28;20234;-83
2022/05/26 04:29:13;;;;;;;2.47;0.80;;;;;;;18.02;44.79;98299.47;8416514;28;20436;-84
2022/05/26 04:33:18;;;;;;;1.50;0.60;;;;;;;18.17;44.32;98301.03;8416178;28;20555;-84
2022/05/26 04:37:24;;;;;;;5.03;0.70;;;;;;;18.13;44.25;98304.81;8416041;28;20234;-83
2022/05/26 04:41:27;;;;;;;2.37;0.83;;;;;;;18.22;44.16;98298.94;8408018;28;20226;-83
2022/05/26 04:45:30;;;;;;;3.70;0.77;;;;;;;18.17;44.58;98314.97;8415720;28;20406;-84
2022/05/26 04:49:35;;;;;;;2.40;0.70;;;;;;;18.31;44.24;98308.75;8415808;28;20234;-83
2022/05/26 04:53:38;;;;;;;2.70;0.80;;;;;;;18.33;44.56;98309.50;8415433;28;20444;-83
2022/05/26 04:57:41;;;;;;;2.00;0.63;;;;;;;18.38;44.07;98314.41;8414892;28;20242;-83
2022/05/26 05:01:44;;;;;;;3.13;0.93;;;;;;;18.48;44.71;98322.47;8415215;28;20227;-84
2022/05/26 05:05:49;;;;;;;1.83;0.70;;;;;;;18.50;44.24;98324.00;8415154;28;20256;-84
2022/05/26 05:09:52;;;;;;;2.30;0.80;;;;;;;18.56;43.95;98330.59;8414953;28;20226;-84
2022/05/26 05:13:57;;;;;;;2.40;0.70;;;;;;;18.50;44.65;98333.66;8415092;28;20253;-84
2022/05/26 05:18:00;;;;;;;2.70;0.90;;;;;;;18.68;43.96;98334.16;8414843;28;20233;-84
2022/05/26 05:22:07;;;;;;;3.10;0.90;;;;;;;18.63;44.03;98337.09;8414697;28;20269;-84
2022/05/26 05:26:11;;;;;;;3.70;0.80;;;;;;;18.66;43.96;98336.88;8414679;28;20230;-84
2022/05/26 05:30:17;;;;;;;2.37;0.80;;;;;;;18.69;43.85;98341.91;8414483;28;20230;-84
2022/05/26 05:34:24;;;;;;;2.03;0.73;;;;;;;18.70;44.02;98343.59;8414546;28;20398;-82
2022/05/26 05:38:29;;;;;;;3.13;0.70;;;;;;;18.71;43.50;98353.13;8414010;28;20253;-83
2022/05/26 05:42:32;;;;;;;2.53;0.70;;;;;;;18.71;43.77;98354.91;8414130;28;20242;-85
2022/05/26 05:46:53;;;;;;;2.30;0.80;;;;;;;18.93;43.57;98360.31;8381235;28;20228;-84
2022/05/26 05:50:56;;;;;;;1.80;0.80;;;;;;;19.16;43.38;98370.94;8381295;28;20227;-83
2022/05/26 05:55:00;;;;;;;3.33;0.70;;;;;;;19.06;42.99;98367.31;8381127;28;20224;-83
2022/05/26 05:59:10;;;;;;;5.13;0.73;;;;;;;19.28;42.55;98372.66;8380827;28;20235;-83
2022/05/26 06:03:13;;;;;;;3.30;0.80;;;;;;;19.31;42.48;98372.44;8380664;28;20227;-83
2022/05/26 06:07:17;;;;;;;6.00;0.60;;;;;;;19.48;41.86;98376.44;8381021;28;20241;-83
2022/05/26 06:11:21;;;;;;;3.43;0.90;;;;;;;19.60;42.18;98377.31;8383597;28;20238;-81
2022/05/26 06:15:24;;;;;;;4.37;1.00;;;;;;;19.42;41.58;98378.66;8362251;28;20537;-83
2022/05/26 06:19:27;;;;;;;3.90;0.70;;;;;;;19.48;41.69;98383.50;8354267;28;20352;-83
2022/05/26 06:23:30;;;;;;;3.47;0.80;;;;;;;19.68;42.08;98382.81;8354239;28;20239;-83
2022/05/26 06:40:44;;;;;;;0.93;0.70;;;;;;;20.03;42.45;98412.66;8353631;28;20226;-83
2022/05/26 06:44:49;;;;;;;3.20;0.70;;;;;;;19.87;41.81;98421.72;8385077;28;20267;-82
2022/05/26 06:48:52;;;;;;;1.93;0.90;;;;;;;20.22;41.86;98414.72;8386320;28;20235;-83
2022/05/26 06:52:55;;;;;;;3.63;0.80;;;;;;;20.49;41.87;98423.13;8386426;28;20253;-82
2022/05/26 06:56:58;;;;;;;4.53;0.80;;;;;;;20.08;41.68;98424.50;8386348;28;20406;-83
2022/05/26 07:01:03;;;;;;;1.87;0.80;;;;;;;20.63;40.35;98431.78;8386254;28;20231;-83
2022/05/26 07:05:07;;;;;;;4.53;0.67;;;;;;;20.45;41.33;98434.84;8385933;28;20494;-83
2022/05/26 07:09:10;;;;;;;1.07;0.60;;;;;;;20.34;41.41;98434.84;8385934;28;20318;-82
2022/05/26 07:13:12;;;;;;;2.20;0.83;;;;;;;20.34;41.81;98444.53;8385642;28;20233;-83
2022/05/26 07:17:18;;;;;;;2.60;0.60;;;;;;;20.28;41.99;98437.94;8385768;28;20573;-83
2022/05/26 07:21:21;;;;;;;1.43;0.60;;;;;;;20.43;41.67;98449.09;8384981;28;20234;-82
2022/05/26 07:25:23;;;;;;;3.67;0.60;;;;;;;20.53;41.79;98450.03;8409541;28;20236;-82
2022/05/26 07:29:26;;;;;;;1.00;0.60;;;;;;;20.58;41.62;98454.94;8418347;28;20551;-83
2022/05/26 07:33:31;;;;;;;2.90;0.80;;;;;;;20.61;41.73;98460.00;8418150;28;20231;-85
2022/05/26 07:41:57;;;;;;;3.83;0.90;;;;;;;20.89;41.34;98466.56;8417811;28;20228;-83
2022/05/26 07:46:00;;;;;;;3.40;0.90;;;;;;;21.26;39.82;98471.53;8417801;28;20229;-83
2022/05/26 07:50:05;;;;;;;2.00;0.77;;;;;;;21.14;39.66;98480.44;8417638;28;20241;-84
2022/05/26 07:54:08;;;;;;;2.80;0.90;;;;;;;21.09;40.85;98486.03;8417352;28;20525;-84
2022/05/26 07:58:12;;;;;;;1.37;0.70;;;;;;;21.02;40.23;98484.88;8417245;28;20428;-81
2022/05/26 08:02:15;;;;;;;4.13;0.80;;;;;;;21.10;40.45;98490.38;8416899;28;20575;-82
2022/05/26 08:06:19;;;;;;;2.23;0.70;;;;;;;21.24;40.89;98489.25;8416755;28;20253;-83
2022/05/26 08:10:22;;;;;;;2.43;0.77;;;;;;;20.85;41.60;98497.56;8416359;28;20232;-82
2022/05/26 08:14:25;;;;;;;1.90;0.70;;;;;;;20.97;41.66;98497.56;8416822;28;20226;-81
2022/05/26 08:18:29;;;;;;;2.60;0.80;;;;;;;20.73;42.22;98497.66;8416764;28;20229;-83
2022/05/26 08:22:33;;;;;;;1.93;0.80;;;;;;;20.64;42.19;98507.13;8417037;28;20227;-82
2022/05/26 08:26:37;;;;;;;3.30;0.70;;;;;;;20.79;42.03;98505.94;8389398;28;20235;-83
2022/05/26 08:30:40;;;;;;;3.37;1.20;;;;;;;20.58;42.05;98507.56;8382997;28;20305;-83
2022/05/26 08:34:43;;;;;;;2.90;0.90;;;;;;;21.14;40.94;98509.41;8373630;28;20228;-83
2022/05/26 08:38:47;;;;;;;4.70;0.70;;;;;;;21.37;39.86;98508.38;8382764;28;20237;-83
2022/05/26 08:42:50;;;;;;;1.50;0.70;;;;;;;22.14;39.46;98509.22;8389672;28;20222;-82
2022/05/26 08:47:01;;;;;;;3.97;0.80;;;;;;;21.53;40.20;98515.91;8415529;28;20394;-85
2022/05/26 08:51:04;;;;;;;2.60;0.93;;;;;;;21.83;39.36;98515.22;8415763;28;20238;-84
2022/05/26 08:55:15;;;;;;;1.17;0.70;;;;;;;21.77;39.38;98514.91;8415450;28;20246;-83
2022/05/26 08:59:21;;;;;;;2.40;0.60;;;;;;;23.22;37.63;98512.31;8415196;28;20525;-84
2022/05/26 09:03:27;;;;;;;1.23;0.63;;;;;;;23.29;37.10;98527.66;8414642;28;20518;-83
2022/05/26 09:16:16;;;;;;;3.47;0.80;;;;;;;22.13;39.47;98536.56;8414740;28;20253;-83
2022/05/26 09:20:40;;;;;;;1.97;0.60;;;;;;;21.70;39.07;98529.53;8414543;28;20254;-84
2022/05/26 09:24:43;;;;;;;1.20;0.67;;;;;;;21.17;40.07;98536.34;8414491;28;20226;-84
2022/05/26 09:28:49;;;;;;;3.80;0.70;;;;;;;20.95;40.46;98541.59;8414342;28;20237;-84
2022/05/26 09:32:53;;;;;;;3.50;0.70;;;;;;;20.99;41.32;98549.13;8414112;28;20505;-84
2022/05/26 09:37:00;;;;;;;2.00;0.63;;;;;;;20.91;41.05;98548.06;8413503;28;20223;-83
2022/05/26 09:41:07;;;;;;;1.03;0.50;;;;;;;21.03;41.29;98547.09;8413550;28;20235;-83
2022/05/26 09:45:13;;;;;;;2.20;0.80;;;;;;;21.26;41.39;98553.19;8413207;28;20238;-83
2022/05/26 09:49:17;;;;;;;2.60;0.80;;;;;;;21.17;41.28;98553.91;8413036;28;20244;-83
2022/05/26 09:53:32;;;;;;;1.50;0.67;;;;;;;20.98;41.21;98554.50;8413147;28;20249;-83
2022/05/26 09:57:35;;;;;;;0.97;0.70;;;;;;;20.98;41.66;98560.63;8413141;28;20234;-83
2022/05/26 10:01:43;;;;;;;1.47;0.60;;;;;;;20.97;41.22;98561.56;8414034;28;20232;-84
2022/05/26 10:05:50;;;;;;;4.80;0.80;;;;;;;20.93;42.31;98560.13;8413977;28;20316;-84
2022/05/26 10:10:00;;;;;;;1.90;0.80;;;;;;;20.95;41.40;98567.94;8413951;28;20244;-84
2022/05/26 10:14:12;;;;;;;1.53;0.60;;;;;;;20.77;42.18;98565.75;8414085;28;20233;-82
2022/05/26 10:18:42;;;;;;;2.73;1.00;;;;;;;20.78;41.73;98566.59;8413622;28;20247;-83
2022/05/26 10:22:49;;;;;;;3.53;1.10;;;;;;;20.88;41.36;98568.38;8405400;28;20226;-83
2022/05/26 10:26:58;;;;;;;2.27;0.67;;;;;;;20.95;41.49;98570.56;8413940;28;20310;-84
2022/05/26 10:31:07;;;;;;;2.27;0.93;;;;;;;20.84;41.40;98571.38;8414705;28;20224;-83
2022/05/26 10:35:24;;;;;;;2.67;0.90;;;;;;;21.12;40.71;98577.16;8414485;28;20501;-84
2022/05/26 10:39:35;;;;;;;3.83;1.00;;;;;;;21.09;41.07;98575.56;8406241;28;20573;-83
2022/05/26 10:43:43;;;;;;;4.30;0.80;;;;;;;20.98;41.59;98573.78;8414147;28;20264;-84
2022/05/26 10:48:00;;;;;;;1.10;0.70;;;;;;;21.03;41.36;98571.63;8414631;28;20618;-84
2022/05/26 10:52:10;;;;;;;1.87;1.13;;;;;;;21.01;42.52;98576.16;8414457;28;20286;-83
2022/05/26 10:56:21;;;;;;;3.77;1.07;;;;;;;20.97;41.77;98573.91;8415280;28;20230;-83
2022/05/26 11:00:27;;;;;;;2.13;0.70;;;;;;;21.12;41.64;98580.63;8412873;28;20233;-83
2022/05/26 11:04:32;;;;;;;3.03;1.17;;;;;;;20.92;42.07;98570.78;8422050;28;20234;-85
2022/05/26 11:08:41;;;;;;;2.60;0.97;;;;;;;20.83;41.89;98570.53;8422971;28;20240;-84
2022/05/26 11:12:47;;;;;;;2.70;1.20;;;;;;;21.24;41.32;98581.44;8422176;28;20233;-83
2022/05/26 11:21:19;;;;;;;2.00;1.10;;;;;;;21.61;40.13;98568.88;8422805;28;20231;-84
2022/05/26 11:25:29;;;;;;;5.73;1.27;;;;;;;21.37;41.91;98576.88;8417631;28;20253;-78
2022/05/26 11:29:36;;;;;;;1.47;0.80;;;;;;;21.29;41.99;98576.66;8423828;28;20231;-83
2022/05/26 11:38:10;;;;;;;1.30;0.73;;;;;;;21.27;42.24;98583.84;8423056;28;20239;-84
2022/05/26 11:42:28;;;;;;;5.63;1.00;;;;;;;21.26;42.04;98587.44;8425659;28;20509;-84
2022/05/26 11:46:52;;;;;;;3.70;1.10;;;;;;;21.39;41.88;98582.03;8426426;28;20233;-84
2022/05/26 11:50:58;;;;;;;1.53;0.80;;;;;;;21.30;41.39;98573.06;8425593;28;20288;-84
2022/05/26 11:55:11;;;;;;;2.83;0.87;;;;;;;21.27;41.33;98574.13;8425063;28;20234;-79
2022/05/26 11:59:44;;;;;;;2.67;0.90;;;;;;;21.71;41.03;98565.50;8423805;28;20413;-83
2022/05/26 12:03:52;;;;;;;3.07;0.77;;;;;;;21.88;41.61;98570.22;8396745;28;20230;-83
2022/05/26 12:07:56;;;;;;;9.97;6.07;;;;;;;21.37;41.99;98568.16;8387842;28;20239;-83
2022/05/26 12:12:01;;;;;;;14.33;7.27;;;;;;;21.12;42.45;98575.34;8388639;28;20227;-82
2022/05/26 12:16:22;;;;;;;16.57;9.57;;;;;;;21.19;42.97;98580.94;8388523;28;20292;-85
2022/05/26 12:20:33;;;;;;;35.80;21.37;;;;;;;21.56;44.14;98567.56;8403168;28;20236;-82
2022/05/26 12:24:52;;;;;;;12.03;7.23;;;;;;;21.69;41.96;98570.06;8402536;28;20530;-82
2022/05/26 12:28:56;;;;;;;5.30;2.13;;;;;;;23.16;40.67;98562.22;8400840;28;20230;-86
2022/05/26 12:33:03;;;;;;;3.80;1.50;;;;;;;22.77;39.40;98549.66;8403541;28;20215;-82
2022/05/26 12:37:06;;;;;;;4.03;2.30;;;;;;;23.36;38.00;98550.75;8419304;28;20223;-84
2022/05/26 12:41:14;;;;;;;6.80;4.10;;;;;;;23.25;38.55;98547.34;8424254;28;20230;-84
2022/05/26 12:45:25;;;;;;;4.20;2.37;;;;;;;23.59;36.92;98545.25;8407714;28;20227;-82
2022/05/26 12:49:43;;;;;;;3.77;1.77;;;;;;;23.29;36.18;98535.56;8459962;28;20230;-82
2022/05/26 12:53:52;;;;;;;4.87;2.37;;;;;;;23.21;37.63;98537.06;8462573;28;20229;-83
2022/05/26 12:58:10;;;;;;;12.03;4.83;;;;;;;22.78;37.45;98542.56;8463154;28;20226;-85
2022/05/26 13:02:14;;;;;;;53.63;28.10;;;;;;;22.72;41.57;98543.09;8463482;28;20229;-89
2022/05/26 13:06:29;;;;;;;26.53;17.20;;;;;;;22.48;39.38;98536.28;8463890;28;20245;-88
2022/05/26 13:10:35;;;;;;;48.30;25.00;;;;;;;22.86;40.77;98536.63;8464827;28;20225;-85
2022/05/26 13:14:44;;;;;;;10.10;5.63;;;;;;;23.66;37.82;98541.06;8466733;28;20240;-90
2022/05/26 13:18:46;;;;;;;14.70;7.83;;;;;;;23.23;37.61;98545.69;8464588;28;20233;-83
2022/05/26 13:22:51;;;;;;;12.00;5.27;;;;;;;23.06;37.87;98538.41;8463433;28;20230;-87
2022/05/26 13:26:56;;;;;;;7.23;3.07;;;;;;;22.98;38.08;98538.19;8462237;28;20222;-83
2022/05/26 13:35:22;;;;;;;3.67;1.50;;;;;;;22.71;37.14;98536.13;8449578;28;20266;-86
2022/05/26 13:39:27;;;;;;;2.57;1.40;;;;;;;22.52;38.60;98540.31;8448753;28;20241;-87
2022/05/26 13:43:32;;;;;;;4.03;2.60;;;;;;;22.71;38.99;98525.56;8426815;28;20227;-85
2022/05/26 13:47:35;;;;;;;9.43;2.47;;;;;;;22.54;39.47;98527.84;8413793;28;20253;-83
2022/05/26 13:51:41;;;;;;;7.50;1.70;;;;;;;23.15;38.65;98519.13;8413772;28;20235;-86
2022/05/26 13:55:47;;;;;;;2.47;1.20;;;;;;;23.53;37.15;98516.69;8413649;28;20505;-85
2022/05/26 13:59:52;;;;;;;3.83;1.00;;;;;;;22.83;39.20;98521.88;8403679;28;20228;-85
2022/05/26 14:03:58;;;;;;;3.30;0.90;;;;;;;22.40;40.39;98528.16;8362604;28;20220;-85
2022/05/26 14:08:04;;;;;;;3.87;0.77;;;;;;;22.16;40.14;98515.19;8362981;28;20420;-82
2022/05/26 14:12:23;;;;;;;4.87;1.00;;;;;;;21.97;41.09;98521.16;8363117;28;20405;-84
2022/05/26 14:16:28;;;;;;;5.33;1.20;;;;;;;22.20;40.79;98513.97;8407729;28;20223;-87
2022/05/26 14:20:31;;;;;;;9.03;1.47;;;;;;;22.32;40.49;98517.44;8414076;28;20272;-85
2022/05/26 14:24:38;;;;;;;5.87;1.00;;;;;;;22.59;38.84;98515.09;8414572;28;20246;-87
2022/05/26 14:28:43;;;;;;;3.27;0.97;;;;;;;22.82;38.99;98512.28;8402024;28;20242;-87
2022/05/26 14:32:46;;;;;;;3.13;0.80;;;;;;;22.51;40.14;98516.72;8418748;28;20234;-87
2022/05/26 14:36:48;;;;;;;4.60;1.20;;;;;;;22.48;39.17;98512.53;8421735;28;20222;-88
2022/05/26 14:40:52;;;;;;;3.27;1.37;;;;;;;22.59;39.35;98514.25;8422060;28;20730;-88
2022/05/26 14:44:56;;;;;;;15.47;10.97;;;;;;;23.09;37.16;98495.03;8421030;28;20227;-89
2022/05/26 14:48:59;;;;;;;4.60;3.10;;;;;;;22.95;38.83;98496.22;8420924;28;20230;-87
2022/05/26 14:53:03;;;;;;;3.97;1.60;;;;;;;22.80;39.19;98499.19;8421320;28;20237;-87
2022/05/26 14:57:07;;;;;;;3.07;1.73;;;;;;;22.65;39.59;98493.44;8422116;28;20230;-88
2022/05/26 15:01:12;;;;;;;6.27;3.57;;;;;;;22.60;39.81;98495.66;8421761;28;20235;-87
2022/05/26 15:05:15;;;;;;;5.27;1.70;;;;;;;22.57;40.46;98497.72;8422577;28;20559;-88
2022/05/26 15:09:20;;;;;;;3.80;2.30;;;;;;;22.34;39.45;98482.03;8423145;28;20242;-88
2022/05/26 15:13:26;;;;;;;12.27;2.13;;;;;;;22.36;39.80;98485.38;8411396;28;20230;-86
2022/05/26 15:17:30;;;;;;;9.83;2.90;;;;;;;22.58;39.49;98486.19;8419409;28;20327;-85
2022/05/26 15:21:33;;;;;;;9.43;2.37;;;;;;;22.44;39.23;98482.91;8419036;28;20572;-79
2022/05/26 15:26:07;;;;;;;2.60;1.70;;;;;;;22.35;39.97;98472.31;8399709;28;20231;-86
2022/05/26 15:30:01;;;;;;;4.57;1.80;;;;;;;22.48;39.96;98477.38;8414837;28;20421;-89
2022/05/26 15:34:06;;;;;;;2.23;1.00;;;;;;;22.01;40.17;98475.13;8417960;28;20548;-86
2022/05/26 15:38:09;;;;;;;3.17;1.20;;;;;;;21.93;40.24;98478.38;8418184;28;20241;-86
2022/05/26 15:42:12;;;;;;;2.27;1.20;;;;;;;21.80;40.68;98470.69;8417516;28;20241;-86
2022/05/26 15:46:19;;;;;;;2.33;1.00;;;;;;;21.77;41.30;98472.72;8417248;28;20255;-90
2022/05/26 15:50:28;;;;;;;3.23;1.10;;;;;;;22.01;40.55;98477.78;8384117;28;20551;-88
2022/05/26 15:54:31;;;;;;;4.80;1.00;;;;;;;22.42;40.04;98474.28;8385549;28;20231;-90
2022/05/26 15:58:34;;;;;;;3.13;1.10;;;;;;;21.92;40.19;98473.25;8385630;28;20412;-85
2022/05/26 16:02:37;;;;;;;2.40;1.10;;;;;;;22.06;40.52;98465.84;8382930;28;20233;-88
2022/05/26 16:06:42;;;;;;;4.27;1.20;;;;;;;22.12;40.87;98476.84;8350958;28;20359;-87
2022/05/26 16:10:45;;;;;;;2.63;1.10;;;;;;;22.31;40.42;98458.53;8367368;28;20230;-82
2022/05/26 16:14:48;;;;;;;3.53;1.00;;;;;;;22.36;39.35;98459.00;8408523;28;20284;-80
2022/05/26 16:18:52;;;;;;;3.43;1.10;;;;;;;22.68;39.68;98444.84;8408530;28;20335;-83
2022/05/26 16:22:57;;;;;;;240.33;166.77;;;;;;;22.63;38.89;98454.94;8394788;28;20246;-82
2022/05/26 16:27:02;;;;;;;105.53;79.73;;;;;;;22.55;39.54;98449.50;8386780;28;20223;-82
2022/05/26 16:31:05;;;;;;;13.77;6.70;;;;;;;22.47;39.67;98450.16;8396927;28;20231;-80
2022/05/26 16:39:37;;;;;;;7.97;5.17;;;;;;;22.67;38.03;98437.06;8394371;28;20226;-83
2022/05/26 16:43:40;;;;;;;6.77;2.77;;;;;;;22.58;38.24;98447.44;8394649;28;20419;-84
2022/05/26 16:47:43;;;;;;;4.27;1.20;;;;;;;22.23;38.01;98442.50;8388756;28;20227;-81
2022/05/26 16:51:48;;;;;;;2.23;1.10;;;;;;;22.23;39.16;98439.88;8397761;28;20417;-82
2022/05/26 16:55:52;;;;;;;5.60;1.10;;;;;;;22.31;38.74;98432.16;8395180;28;20223;-81
2022/05/26 16:59:55;;;;;;;5.23;2.50;;;;;;;22.24;38.84;98439.75;8391985;28;20227;-83
2022/05/26 17:03:58;;;;;;;10.83;6.00;;;;;;;22.17;39.06;98445.66;8398216;28;20227;-82
2022/05/26 17:08:01;;;;;;;56.50;49.40;;;;;;;22.12;39.26;98432.03;8395203;28;20421;-82
2022/05/26 17:12:07;;;;;;;4.33;3.17;;;;;;;22.11;38.48;98433.00;8395426;28;20227;-80
2022/05/26 17:24:54;;;;;;;18.10;14.00;;;;;;;22.09;38.69;98435.75;8410044;28;20231;-80
2022/05/26 17:28:59;;;;;;;3.27;1.40;;;;;;;21.93;38.03;98430.94;8414604;28;20254;-79
2022/05/26 17:33:02;;;;;;;5.97;1.30;;;;;;;21.84;38.81;98431.72;8414440;28;20301;-80
2022/05/26 17:37:06;;;;;;;4.60;1.30;;;;;;;21.80;38.64;98427.63;8414531;28;20230;-81
2022/05/26 17:41:10;;;;;;;2.33;0.90;;;;;;;21.79;38.42;98434.72;8414418;28;20537;-79
2022/05/26 17:45:18;;;;;;;2.53;1.03;;;;;;;21.64;37.99;98431.56;8414342;28;20234;-79
2022/05/26 17:49:23;;;;;;;2.23;1.00;;;;;;;21.48;37.90;98439.88;8414422;28;20336;-78
2022/05/26 17:53:26;;;;;;;15.63;2.10;;;;;;;21.53;39.68;98431.59;8414021;28;20529;-81
2022/05/26 17:57:29;;;;;;;4.87;1.40;;;;;;;21.38;38.25;98428.41;8402508;28;20410;-85
2022/05/26 18:01:34;;;;;;;2.50;1.20;;;;;;;21.43;38.23;98428.84;8393656;28;20231;-89
2022/05/26 18:05:37;;;;;;;3.10;1.20;;;;;;;21.29;38.34;98429.16;8396676;28;20228;-84
2022/05/26 18:09:40;;;;;;;1.70;0.93;;;;;;;21.32;38.67;98436.78;8385855;28;20232;-84
2022/05/26 18:13:43;;;;;;;2.67;1.03;;;;;;;21.22;38.93;98431.44;8380868;28;20262;-84
2022/05/26 18:17:54;;;;;;;4.07;1.03;;;;;;;21.12;38.89;98435.78;8395869;28;20230;-87
2022/05/26 18:22:08;;;;;;;2.97;1.10;;;;;;;21.01;39.62;98427.91;8413565;28;20298;-84
2022/05/26 18:26:24;;;;;;;1.93;0.87;;;;;;;20.99;39.73;98427.19;8413636;28;20230;-83
2022/05/26 18:30:37;;;;;;;4.93;1.13;;;;;;;20.92;40.21;98432.09;8413485;28;20453;-84
2022/05/26 18:34:48;;;;;;;1.90;0.87;;;;;;;20.82;40.56;98433.78;8399556;28;20501;-83
2022/05/26 18:38:52;;;;;;;2.17;1.00;;;;;;;20.80;40.37;98440.97;8379757;28;20236;-83
2022/05/26 18:42:55;;;;;;;1.60;0.80;;;;;;;20.74;40.78;98433.56;8396627;28;20530;-86
2022/05/26 18:46:58;;;;;;;3.10;1.00;;;;;;;20.67;41.13;98436.66;8413573;28;20234;-83
2022/05/26 18:51:02;;;;;;;2.93;1.07;;;;;;;20.58;41.69;98434.75;8397820;28;20224;-85
2022/05/26 18:55:08;;;;;;;2.93;1.10;;;;;;;20.50;41.99;98435.34;8395782;28;20226;-85
2022/05/26 18:59:11;;;;;;;4.30;1.10;;;;;;;20.47;41.77;98437.38;8397523;28;20521;-86
2022/05/26 19:03:16;;;;;;;1.57;1.20;;;;;;;20.43;42.84;98431.50;8395699;28;20226;-83
2022/05/26 19:07:20;;;;;;;2.63;1.30;;;;;;;20.36;42.63;98432.94;8395191;28;20232;-84
2022/05/26 19:11:42;;;;;;;3.17;1.10;;;;;;;20.31;42.72;98437.69;8393587;28;20242;-83
2022/05/26 19:15:45;;;;;;;1.63;1.10;;;;;;;20.28;43.03;98436.16;8395298;28;20251;-84
2022/05/26 19:19:48;;;;;;;1.93;1.13;;;;;;;20.22;43.07;98441.03;8399662;28;20225;-83
2022/05/26 19:23:53;;;;;;;2.13;1.00;;;;;;;20.23;42.81;98445.34;8400678;28;20230;-84
2022/05/26 19:27:55;;;;;;;4.03;1.03;;;;;;;20.13;43.52;98447.00;8400984;28;20525;-85
2022/05/26 19:31:59;;;;;;;2.13;1.13;;;;;;;20.00;43.66;98455.81;8400899;28;20423;-84
2022/05/26 19:36:02;;;;;;;4.77;1.20;;;;;;;19.98;44.07;98455.09;8400778;28;20225;-84
2022/05/26 19:40:08;;;;;;;3.03;1.30;;;;;;;19.99;43.60;98459.41;8399122;28;20239;-84
2022/05/26 19:44:11;;;;;;;2.73;1.40;;;;;;;19.90;43.96;98460.09;8401986;28;20247;-83
2022/05/26 19:48:15;;;;;;;1.63;1.20;;;;;;;19.85;44.36;98462.22;8400766;28;20313;-84
2022/05/26 19:52:19;;;;;;;2.40;1.63;;;;;;;19.71;45.03;98468.47;8400366;28;20227;-85
2022/05/26 19:56:23;;;;;;;5.50;1.30;;;;;;;19.72;44.18;98470.16;8401201;28;20500;-78
2022/05/26 20:00:29;;;;;;;3.43;1.27;;;;;;;19.70;44.39;98464.16;8400336;28;20227;-84
2022/05/26 20:04:32;;;;;;;5.30;1.43;;;;;;;19.60;44.71;98465.78;8402094;28;20228;-84
2022/05/26 20:08:37;;;;;;;2.17;1.10;;;;;;;19.54;44.38;98472.34;8406006;28;20343;-84
2022/05/26 20:12:41;;;;;;;5.33;1.20;;;;;;;19.54;44.40;98475.78;8405733;28;20421;-84
2022/05/26 20:16:44;;;;;;;2.50;1.20;;;;;;;19.51;44.54;98468.16;8401835;28;20232;-81
2022/05/26 20:20:46;;;;;;;3.03;1.33;;;;;;;19.44;44.31;98471.31;8403407;28;20219;-84